createdAt,value
2018-06-23T00:01:17.595Z,10.50
2018-06-23T00:03:45.252Z,10.40
2018-06-23T00:06:12.938Z,10.40
2018-06-23T00:08:40.606Z,10.30
2018-06-23T00:11:08.266Z,10.40
2018-06-23T00:13:35.916Z,10.40
2018-06-23T00:16:03.595Z,10.40
2018-06-23T00:18:31.287Z,10.40
2018-06-23T00:20:58.994Z,10.40
2018-06-23T00:23:26.648Z,10.40
2018-06-23T00:25:59.911Z,10.40
2018-06-23T00:28:27.585Z,10.40
2018-06-23T00:30:55.249Z,10.40
2018-06-23T00:33:22.940Z,10.40
2018-06-23T00:35:50.574Z,10.40
2018-06-23T00:38:18.282Z,10.40
2018-06-23T00:40:45.970Z,10.40
2018-06-23T00:43:13.701Z,10.50
2018-06-23T00:45:41.360Z,10.50
2018-06-23T00:48:09.085Z,10.50
2018-06-23T00:50:36.740Z,10.40
2018-06-23T00:53:04.530Z,10.40
2018-06-23T00:55:32.222Z,10.50
2018-06-23T00:57:59.866Z,10.50
2018-06-23T01:00:27.498Z,10.50
2018-06-23T01:02:55.142Z,10.50
2018-06-23T01:05:22.845Z,10.50
2018-06-23T01:07:50.470Z,10.50
2018-06-23T01:10:18.161Z,10.50
2018-06-23T01:12:45.810Z,10.50
2018-06-23T01:15:13.578Z,10.50
2018-06-23T01:17:41.204Z,10.50
2018-06-23T01:20:08.941Z,10.50
2018-06-23T01:22:36.622Z,10.60
2018-06-23T01:25:04.308Z,10.50
2018-06-23T01:27:31.966Z,10.50
2018-06-23T01:29:59.612Z,10.50
2018-06-23T01:32:27.242Z,10.50
2018-06-23T01:34:54.885Z,10.60
2018-06-23T01:37:22.526Z,10.60
2018-06-23T01:39:50.173Z,10.60
2018-06-23T01:42:17.848Z,10.60
2018-06-23T01:44:45.477Z,10.60
2018-06-23T01:47:13.112Z,10.60
2018-06-23T01:49:40.760Z,10.60
2018-06-23T01:52:08.428Z,10.50
2018-06-23T01:54:36.053Z,10.50
2018-06-23T01:57:04.004Z,10.60
2018-06-23T01:59:31.697Z,10.60
2018-06-23T02:01:59.350Z,10.60
2018-06-23T02:04:27.059Z,10.50
2018-06-23T02:06:54.725Z,10.50
2018-06-23T02:09:22.391Z,10.50
2018-06-23T02:11:50.059Z,10.60
2018-06-23T02:14:23.494Z,10.60
2018-06-23T02:16:56.809Z,10.60
2018-06-23T02:19:30.297Z,10.50
2018-06-23T02:22:03.676Z,10.50
2018-06-23T02:24:37.034Z,10.50
2018-06-23T02:27:10.304Z,10.50
2018-06-23T02:29:43.652Z,10.50
2018-06-23T02:32:16.821Z,10.40
2018-06-23T02:34:50.192Z,10.40
2018-06-23T02:37:17.854Z,10.40
2018-06-23T02:39:45.809Z,10.40
2018-06-23T02:42:13.494Z,10.40
2018-06-23T02:44:41.125Z,10.40
2018-06-23T02:47:08.773Z,10.30
2018-06-23T02:49:36.887Z,10.30
2018-06-23T02:52:04.710Z,10.40
2018-06-23T02:54:32.355Z,10.40
2018-06-23T02:57:00.000Z,10.40
2018-06-23T02:59:27.686Z,10.40
2018-06-23T03:01:55.380Z,10.30
2018-06-23T03:04:23.007Z,10.40
2018-06-23T03:06:50.620Z,10.40
2018-06-23T03:09:18.249Z,10.40
2018-06-23T03:11:45.894Z,10.40
2018-06-23T03:14:13.610Z,10.40
2018-06-23T03:16:41.245Z,10.40
2018-06-23T03:19:08.899Z,10.40
2018-06-23T03:21:36.542Z,10.50
2018-06-23T03:24:04.242Z,10.50
2018-06-23T03:26:31.904Z,10.50
2018-06-23T03:28:59.588Z,10.50
2018-06-23T03:31:27.274Z,10.50
2018-06-23T03:33:54.934Z,10.50
2018-06-23T03:36:22.597Z,10.60
2018-06-23T03:38:50.216Z,10.60
2018-06-23T03:41:17.969Z,10.50
2018-06-23T03:43:45.632Z,10.50
2018-06-23T03:46:13.300Z,10.50
2018-06-23T03:48:40.962Z,10.50
2018-06-23T03:51:08.578Z,10.50
2018-06-23T03:53:36.226Z,10.50
2018-06-23T03:56:03.942Z,10.50
2018-06-23T03:58:31.606Z,10.50
2018-06-23T04:01:05.670Z,10.50
2018-06-23T04:03:33.538Z,10.50
2018-06-23T04:06:01.185Z,10.50
2018-06-23T04:08:28.858Z,10.50
2018-06-23T04:10:56.508Z,10.40
2018-06-23T04:13:24.124Z,10.50
2018-06-23T04:15:51.762Z,10.50
2018-06-23T04:18:19.415Z,10.40
2018-06-23T04:20:47.043Z,10.40
2018-06-23T04:23:14.697Z,10.50
2018-06-23T04:25:42.361Z,10.50
2018-06-23T04:28:10.016Z,10.60
2018-06-23T04:30:37.638Z,10.60
2018-06-23T04:33:05.267Z,10.60
2018-06-23T04:35:32.919Z,10.70
2018-06-23T04:38:00.562Z,10.70
2018-06-23T04:40:28.309Z,10.70
2018-06-23T04:42:55.926Z,10.70
2018-06-23T04:45:23.545Z,10.70
2018-06-23T04:47:51.200Z,10.80
2018-06-23T04:50:18.830Z,10.70
2018-06-23T04:52:46.476Z,10.80
2018-06-23T04:55:14.121Z,10.80
2018-06-23T04:57:41.784Z,10.80
2018-06-23T05:00:09.442Z,10.90
2018-06-23T05:02:37.085Z,11.00
2018-06-23T05:05:04.764Z,10.90
2018-06-23T05:07:32.439Z,11.00
2018-06-23T05:10:00.099Z,11.00
2018-06-23T05:12:27.791Z,11.00
2018-06-23T05:14:55.437Z,11.00
2018-06-23T05:17:23.090Z,11.10
2018-06-23T05:19:51.269Z,11.00
2018-06-23T05:22:18.918Z,11.00
2018-06-23T05:24:46.616Z,11.10
2018-06-23T05:27:14.258Z,11.10
2018-06-23T05:29:41.877Z,11.20
2018-06-23T05:32:09.574Z,11.20
2018-06-23T05:34:37.212Z,11.20
2018-06-23T05:37:04.887Z,11.30
2018-06-23T05:39:32.493Z,11.30
2018-06-23T05:42:00.149Z,11.20
2018-06-23T05:44:27.782Z,11.20
2018-06-23T05:46:55.416Z,11.10
2018-06-23T05:49:23.134Z,11.10
2018-06-23T05:51:50.803Z,11.10
2018-06-23T05:54:18.459Z,11.10
2018-06-23T05:56:46.187Z,11.10
2018-06-23T05:59:13.821Z,11.10
2018-06-23T06:01:41.526Z,11.20
2018-06-23T06:04:09.278Z,11.20
2018-06-23T06:06:36.894Z,11.20
2018-06-23T06:09:06.601Z,11.30
2018-06-23T06:11:34.267Z,11.60
2018-06-23T06:14:01.877Z,11.70
2018-06-23T06:17:36.913Z,11.80
2018-06-23T06:20:07.242Z,11.70
2018-06-23T06:22:36.136Z,11.60
2018-06-23T06:25:04.507Z,11.60
2018-06-23T06:27:32.159Z,11.80
2018-06-23T06:29:59.872Z,12.00
2018-06-23T06:32:28.030Z,12.20
2018-06-23T06:34:55.857Z,12.30
2018-06-23T06:37:23.578Z,12.30
2018-06-23T06:39:51.271Z,12.50
2018-06-23T06:42:18.986Z,12.60
2018-06-23T06:44:46.685Z,12.50
2018-06-23T06:47:16.694Z,12.40
2018-06-23T06:49:44.452Z,12.50
2018-06-23T06:52:12.182Z,12.70
2018-06-23T06:54:39.890Z,12.70
2018-06-23T06:57:07.652Z,12.70
2018-06-23T06:59:35.343Z,12.70
2018-06-23T07:02:03.027Z,12.70
2018-06-23T07:04:30.762Z,12.70
2018-06-23T07:06:58.434Z,12.70
2018-06-23T07:09:26.146Z,12.80
2018-06-23T07:11:53.794Z,12.80
2018-06-23T07:14:21.493Z,13.00
2018-06-23T07:16:49.159Z,13.20
2018-06-23T07:19:16.924Z,13.30
2018-06-23T07:21:44.618Z,13.30
2018-06-23T07:24:12.355Z,13.30
2018-06-23T07:26:40.066Z,13.40
2018-06-23T07:29:08.088Z,13.60
2018-06-23T07:31:35.850Z,13.80
2018-06-23T07:34:03.739Z,13.80
2018-06-23T07:36:31.405Z,13.60
2018-06-23T07:38:59.447Z,13.50
2018-06-23T07:41:27.115Z,13.50
2018-06-23T07:43:54.875Z,13.40
2018-06-23T07:46:22.590Z,13.50
2018-06-23T07:48:50.311Z,13.50
2018-06-23T07:51:18.094Z,13.50
2018-06-23T07:53:45.827Z,13.40
2018-06-23T07:56:13.536Z,13.40
2018-06-23T07:58:41.213Z,13.30
2018-06-23T08:01:08.868Z,13.30
2018-06-23T08:03:37.306Z,13.20
2018-06-23T08:06:05.290Z,13.10
2018-06-23T08:08:32.965Z,13.10
2018-06-23T08:11:00.715Z,13.20
2018-06-23T08:13:28.382Z,13.20
2018-06-23T08:15:56.109Z,13.30
2018-06-23T08:18:23.809Z,13.30
2018-06-23T08:20:51.466Z,13.50
2018-06-23T08:23:19.464Z,13.60
2018-06-23T08:25:47.150Z,13.70
2018-06-23T08:28:14.835Z,13.90
2018-06-23T08:30:42.502Z,14.10
2018-06-23T08:33:10.190Z,14.30
2018-06-23T08:35:37.834Z,14.30
2018-06-23T08:38:05.554Z,14.30
2018-06-23T08:40:33.210Z,14.30
2018-06-23T08:43:00.934Z,14.30
2018-06-23T08:45:28.630Z,14.20
2018-06-23T08:47:56.315Z,14.00
2018-06-23T08:50:23.998Z,13.80
2018-06-23T08:52:51.654Z,13.70
2018-06-23T08:55:19.309Z,13.60
2018-06-23T08:57:46.972Z,13.50
2018-06-23T09:00:14.658Z,13.50
2018-06-23T09:02:42.411Z,13.40
2018-06-23T09:05:12.093Z,13.40
2018-06-23T09:07:39.712Z,13.30
2018-06-23T09:10:07.406Z,13.30
2018-06-23T09:12:35.050Z,13.20
2018-06-23T09:15:02.756Z,13.00
2018-06-23T09:17:30.429Z,12.90
2018-06-23T09:19:58.072Z,12.80
2018-06-23T09:22:25.858Z,12.90
2018-06-23T09:24:53.506Z,13.10
2018-06-23T09:27:21.132Z,13.30
2018-06-23T09:29:48.781Z,13.40
2018-06-23T09:32:16.433Z,13.50
2018-06-23T09:34:44.086Z,13.70
2018-06-23T09:37:11.762Z,13.70
2018-06-23T09:39:39.389Z,13.50
2018-06-23T09:42:07.129Z,13.30
2018-06-23T09:44:34.843Z,13.00
2018-06-23T09:47:02.494Z,12.90
2018-06-23T09:49:30.145Z,12.80
2018-06-23T09:51:57.822Z,12.70
2018-06-23T09:54:25.511Z,12.70
2018-06-23T09:56:53.190Z,12.70
2018-06-23T09:59:20.828Z,12.70
2018-06-23T10:01:48.449Z,12.70
2018-06-23T10:04:16.079Z,12.70
2018-06-23T10:06:44.067Z,12.60
2018-06-23T10:09:11.731Z,12.60
2018-06-23T10:11:39.334Z,12.60
2018-06-23T10:14:07.314Z,12.60
2018-06-23T10:16:35.058Z,12.60
2018-06-23T10:19:02.875Z,12.70
2018-06-23T10:21:30.560Z,12.70
2018-06-23T10:23:58.187Z,12.70
2018-06-23T10:26:25.836Z,12.80
2018-06-23T10:28:53.538Z,12.90
2018-06-23T10:31:21.220Z,12.80
2018-06-23T10:33:48.894Z,12.70
2018-06-23T10:36:16.518Z,12.70
2018-06-23T10:38:44.193Z,12.60
2018-06-23T10:41:11.849Z,12.60
2018-06-23T10:43:39.675Z,12.70
2018-06-23T10:46:07.304Z,12.80
2018-06-23T10:48:34.985Z,12.70
2018-06-23T10:51:02.693Z,12.60
2018-06-23T10:53:30.373Z,12.50
2018-06-23T10:55:58.214Z,12.50
2018-06-23T10:58:25.886Z,12.60
2018-06-23T11:00:53.825Z,12.80
2018-06-23T11:03:21.493Z,13.00
2018-06-23T11:05:49.178Z,13.10
2018-06-23T11:08:16.850Z,13.10
2018-06-23T11:10:44.547Z,12.90
2018-06-23T11:13:12.192Z,12.80
2018-06-23T11:15:40.102Z,12.80
2018-06-23T11:18:07.832Z,12.80
2018-06-23T11:20:35.494Z,12.80
2018-06-23T11:23:03.189Z,12.70
2018-06-23T11:25:30.880Z,12.80
2018-06-23T11:27:58.514Z,12.90
2018-06-23T11:30:26.178Z,12.90
2018-06-23T11:32:53.798Z,12.90
2018-06-23T11:35:21.471Z,12.70
2018-06-23T11:37:49.122Z,12.60
2018-06-23T11:40:16.786Z,12.40
2018-06-23T11:42:44.430Z,12.30
2018-06-23T11:45:12.098Z,12.30
2018-06-23T11:47:39.743Z,12.20
2018-06-23T11:50:07.372Z,12.20
2018-06-23T11:52:35.042Z,12.10
2018-06-23T11:55:02.741Z,12.00
2018-06-23T11:57:30.379Z,11.90
2018-06-23T11:59:58.026Z,11.90
2018-06-23T12:02:25.653Z,11.90
2018-06-23T12:04:54.335Z,11.80
2018-06-23T12:07:22.000Z,11.90
2018-06-23T12:09:49.649Z,12.10
2018-06-23T12:12:17.298Z,12.30
2018-06-23T12:14:44.913Z,12.50
2018-06-23T12:17:12.599Z,12.60
2018-06-23T12:19:40.248Z,12.60
2018-06-23T12:22:07.968Z,12.80
2018-06-23T12:24:35.660Z,12.90
2018-06-23T12:27:03.450Z,12.90
2018-06-23T12:29:31.080Z,12.90
2018-06-23T12:31:58.756Z,12.90
2018-06-23T12:34:26.410Z,12.90
2018-06-23T12:36:54.100Z,12.90
2018-06-23T12:39:21.754Z,12.90
2018-06-23T12:41:49.428Z,13.00
2018-06-23T12:44:17.046Z,13.00
2018-06-23T12:46:44.668Z,13.10
2018-06-23T12:49:12.341Z,13.00
2018-06-23T12:51:40.018Z,12.90
2018-06-23T12:54:07.746Z,12.80
2018-06-23T12:56:35.502Z,12.80
2018-06-23T12:59:03.272Z,12.90
2018-06-23T13:01:30.889Z,12.80
2018-06-23T13:03:58.626Z,12.80
2018-06-23T13:06:26.262Z,12.70
2018-06-23T13:08:53.935Z,12.60
2018-06-23T13:11:21.701Z,12.50
2018-06-23T13:13:49.413Z,12.50
2018-06-23T13:16:17.107Z,12.50
2018-06-23T13:18:44.822Z,12.50
2018-06-23T13:21:12.531Z,12.60
2018-06-23T13:23:40.278Z,12.50
2018-06-23T13:26:07.986Z,12.60
2018-06-23T13:28:35.745Z,12.60
2018-06-23T13:31:03.462Z,12.70
2018-06-23T13:33:31.186Z,12.70
2018-06-23T13:35:58.875Z,12.70
2018-06-23T13:38:26.604Z,12.60
2018-06-23T13:40:54.301Z,12.60
2018-06-23T13:43:22.074Z,12.40
2018-06-23T13:45:49.718Z,12.40
2018-06-23T13:48:17.368Z,12.50
2018-06-23T13:50:45.021Z,12.60
2018-06-23T13:53:12.745Z,12.70
2018-06-23T13:55:40.479Z,12.80
2018-06-23T13:58:08.163Z,12.80
2018-06-23T14:00:35.836Z,12.80
2018-06-23T14:03:03.698Z,12.80
2018-06-23T14:05:31.354Z,12.80
2018-06-23T14:07:59.065Z,12.70
2018-06-23T14:10:26.743Z,12.60
2018-06-23T14:12:54.430Z,12.50
2018-06-23T14:15:22.089Z,12.50
2018-06-23T14:17:49.748Z,12.40
2018-06-23T14:20:17.505Z,12.30
2018-06-23T14:22:45.169Z,12.30
2018-06-23T14:25:12.793Z,12.30
2018-06-23T14:27:40.430Z,12.40
2018-06-23T14:30:08.086Z,12.40
2018-06-23T14:32:35.696Z,12.50
2018-06-23T14:35:03.437Z,12.50
2018-06-23T14:37:31.075Z,12.50
2018-06-23T14:39:58.699Z,12.50
2018-06-23T14:42:26.300Z,12.40
2018-06-23T14:44:53.967Z,12.40
2018-06-23T14:47:21.681Z,12.30
2018-06-23T14:49:49.350Z,12.30
2018-06-23T14:54:44.541Z,12.40
2018-06-23T14:57:12.179Z,12.40
2018-06-23T14:59:39.895Z,12.40
2018-06-23T15:02:07.565Z,12.40
2018-06-23T15:04:35.258Z,12.40
2018-06-23T15:07:02.974Z,12.40
2018-06-23T15:09:42.040Z,12.30
2018-06-23T15:12:21.045Z,12.30
2018-06-23T15:14:48.700Z,12.30
2018-06-23T15:17:16.531Z,12.40
2018-06-23T15:19:44.155Z,12.40
2018-06-23T15:22:11.933Z,12.40
2018-06-23T15:24:39.569Z,12.50
2018-06-23T15:27:07.267Z,12.50
2018-06-23T15:29:35.034Z,12.50
2018-06-23T15:32:02.754Z,12.50
2018-06-23T15:34:30.383Z,12.50
2018-06-23T15:36:58.128Z,12.60
2018-06-23T15:39:25.951Z,12.60
2018-06-23T15:41:53.606Z,12.60
2018-06-23T15:44:21.238Z,12.60
2018-06-23T15:46:48.973Z,12.50
2018-06-23T15:49:16.636Z,12.40
2018-06-23T15:51:44.290Z,12.30
2018-06-23T15:54:11.958Z,12.40
2018-06-23T15:56:39.622Z,12.30
2018-06-23T15:59:07.296Z,12.30
2018-06-23T16:01:34.938Z,12.40
2018-06-23T16:04:02.611Z,12.40
2018-06-23T16:06:30.272Z,12.30
2018-06-23T16:08:57.971Z,12.30
2018-06-23T16:11:25.630Z,12.30
2018-06-23T16:13:53.605Z,12.20
2018-06-23T16:16:22.460Z,12.20
2018-06-23T16:18:50.118Z,12.00
2018-06-23T16:21:17.787Z,12.00
2018-06-23T16:23:45.520Z,12.00
2018-06-23T16:26:13.187Z,12.00
2018-06-23T16:28:40.928Z,11.90
2018-06-23T16:31:08.582Z,11.90
2018-06-23T16:33:36.247Z,11.80
2018-06-23T16:36:03.951Z,11.70
2018-06-23T16:38:31.583Z,11.60
2018-06-23T16:40:59.310Z,11.60
2018-06-23T16:43:26.986Z,11.60
2018-06-23T16:45:54.653Z,11.50
2018-06-23T16:48:22.330Z,11.60
2018-06-23T16:50:50.060Z,11.50
2018-06-23T16:53:17.758Z,11.50
2018-06-23T16:55:45.467Z,11.60
2018-06-23T16:58:13.670Z,11.60
2018-06-23T17:00:41.354Z,11.60
2018-06-23T17:03:09.209Z,11.60
2018-06-23T17:05:36.868Z,11.60
2018-06-23T17:08:04.536Z,11.50
2018-06-23T17:10:32.210Z,11.50
2018-06-23T17:12:59.865Z,11.40
2018-06-23T17:15:27.585Z,11.30
2018-06-23T17:17:55.261Z,11.30
2018-06-23T17:20:22.898Z,11.30
2018-06-23T17:22:50.570Z,11.30
2018-06-23T17:25:18.210Z,11.30
2018-06-23T17:27:46.492Z,11.30
2018-06-23T17:30:14.124Z,11.30
2018-06-23T17:32:42.226Z,11.20
2018-06-23T17:35:09.894Z,11.20
2018-06-23T17:37:37.524Z,11.20
2018-06-23T17:40:05.209Z,11.20
2018-06-23T17:42:32.854Z,11.20
2018-06-23T17:45:00.517Z,11.20
2018-06-23T17:47:28.195Z,11.20
2018-06-23T17:49:55.845Z,11.20
2018-06-23T17:52:23.530Z,11.20
2018-06-23T17:54:51.176Z,11.20
2018-06-23T17:57:18.998Z,11.20
2018-06-23T17:59:46.658Z,11.20
2018-06-23T18:02:14.470Z,11.20
2018-06-23T18:04:42.100Z,11.20
2018-06-23T18:07:09.868Z,11.10
2018-06-23T18:09:37.554Z,11.20
2018-06-23T18:12:05.619Z,11.10
2018-06-23T18:14:33.263Z,11.10
2018-06-23T18:17:00.906Z,11.10
2018-06-23T18:19:28.583Z,11.20
2018-06-23T18:21:56.275Z,11.10
2018-06-23T18:24:24.131Z,11.20
2018-06-23T18:26:51.807Z,11.10
2018-06-23T18:29:19.463Z,11.20
2018-06-23T18:31:47.213Z,11.10
2018-06-23T18:34:14.836Z,11.20
2018-06-23T18:36:42.477Z,11.20
2018-06-23T18:39:11.000Z,11.20
2018-06-23T18:41:38.950Z,11.20
2018-06-23T18:44:07.166Z,11.20
2018-06-23T18:46:34.960Z,11.10
2018-06-23T18:49:02.786Z,11.10
2018-06-23T18:51:30.646Z,11.10
2018-06-23T18:53:58.379Z,11.00
2018-06-23T18:56:26.026Z,11.00
2018-06-23T18:58:53.666Z,11.00
2018-06-23T19:01:21.421Z,11.00
2018-06-23T19:03:49.067Z,11.00
2018-06-23T19:06:16.746Z,11.00
2018-06-23T19:08:44.394Z,11.00
2018-06-23T19:11:12.045Z,10.90
2018-06-23T19:13:39.686Z,10.90
2018-06-23T19:16:07.326Z,10.90
2018-06-23T19:18:35.093Z,10.90
2018-06-23T19:21:03.781Z,10.90
2018-06-23T19:23:31.530Z,10.90
2018-06-23T19:25:59.195Z,10.90
2018-06-23T19:28:26.846Z,10.90
2018-06-23T19:30:54.539Z,11.00
2018-06-23T19:33:22.223Z,10.90
2018-06-23T19:35:50.346Z,10.90
2018-06-23T19:38:18.018Z,10.90
2018-06-23T19:40:45.645Z,10.90
2018-06-23T19:43:14.400Z,10.90
2018-06-23T19:45:42.927Z,10.90
2018-06-23T19:48:10.727Z,10.90
2018-06-23T19:50:38.441Z,10.90
2018-06-23T19:53:06.281Z,11.50
2018-06-23T19:55:33.918Z,11.00
2018-06-23T19:58:01.589Z,10.90
2018-06-23T20:00:29.297Z,10.90
2018-06-23T20:02:57.036Z,10.90
2018-06-23T20:05:24.733Z,10.90
2018-06-23T20:07:52.390Z,10.90
2018-06-23T20:10:20.050Z,10.90
2018-06-23T20:12:47.722Z,10.90
2018-06-23T20:15:15.359Z,10.80
2018-06-23T20:17:43.032Z,10.80
2018-06-23T20:20:11.486Z,10.90
2018-06-23T20:22:39.167Z,10.90
2018-06-23T20:25:06.990Z,10.90
2018-06-23T20:27:34.680Z,10.90
2018-06-23T20:30:02.451Z,10.90
2018-06-23T20:32:30.131Z,10.90
2018-06-23T20:34:57.812Z,10.90
2018-06-23T20:37:25.480Z,10.90
2018-06-23T20:39:53.149Z,10.90
2018-06-23T20:42:20.797Z,10.90
2018-06-23T20:44:48.433Z,10.90
2018-06-23T20:47:16.154Z,10.80
2018-06-23T20:49:43.800Z,10.90
2018-06-23T20:52:11.463Z,10.90
2018-06-23T20:54:39.132Z,10.90
2018-06-23T20:57:06.789Z,11.00
2018-06-23T20:59:34.643Z,11.00
2018-06-23T21:02:02.306Z,10.90
2018-06-23T21:04:29.937Z,10.80
2018-06-23T21:06:57.654Z,10.90
2018-06-23T21:09:25.569Z,10.80
2018-06-23T21:11:53.778Z,10.80
2018-06-23T21:14:21.396Z,10.80
2018-06-23T21:16:49.053Z,10.70
2018-06-23T21:19:16.750Z,10.70
2018-06-23T21:21:44.394Z,10.80
2018-06-23T21:24:12.047Z,10.80
2018-06-23T21:26:39.738Z,10.80
2018-06-23T21:29:07.410Z,10.70
2018-06-23T21:31:35.083Z,10.70
2018-06-23T21:34:02.739Z,10.70
2018-06-23T21:36:30.412Z,10.70
2018-06-23T21:38:58.082Z,10.70
2018-06-23T21:41:25.740Z,10.70
2018-06-23T21:43:53.402Z,10.70
2018-06-23T21:46:21.037Z,10.70
2018-06-23T21:48:48.687Z,10.70
2018-06-23T21:51:16.383Z,10.70
2018-06-23T21:53:44.038Z,10.80
2018-06-23T21:56:11.686Z,10.80
2018-06-23T21:58:39.397Z,10.80
2018-06-23T22:01:07.099Z,10.80
2018-06-23T22:03:34.732Z,10.80
2018-06-23T22:06:02.347Z,10.80
2018-06-23T22:08:30.035Z,10.80
2018-06-23T22:10:57.691Z,10.70
2018-06-23T22:13:25.366Z,10.80
2018-06-23T22:15:52.976Z,10.70
2018-06-23T22:18:20.628Z,10.70
2018-06-23T22:20:48.374Z,10.70
2018-06-23T22:23:16.047Z,10.80
2018-06-23T22:25:43.752Z,10.80
2018-06-23T22:28:11.376Z,10.70
2018-06-23T22:30:39.041Z,10.70
2018-06-23T22:33:06.686Z,10.70
2018-06-23T22:35:34.897Z,10.70
2018-06-23T22:38:02.602Z,10.70
2018-06-23T22:40:30.868Z,10.70
2018-06-23T22:42:58.550Z,10.70
2018-06-23T22:45:26.152Z,10.70
2018-06-23T22:47:53.840Z,10.70
2018-06-23T22:50:22.037Z,10.70
2018-06-23T22:52:50.344Z,10.70
2018-06-23T22:55:19.230Z,10.70
2018-06-23T22:57:47.197Z,10.70
2018-06-23T23:00:15.130Z,10.70
2018-06-23T23:02:43.373Z,10.70
2018-06-23T23:05:11.035Z,10.70
2018-06-23T23:10:14.891Z,10.60
2018-06-23T23:12:42.770Z,10.70
2018-06-23T23:15:10.367Z,10.70
2018-06-23T23:17:37.994Z,10.60
2018-06-23T23:20:05.879Z,10.70
2018-06-23T23:22:33.498Z,10.70
2018-06-23T23:25:01.150Z,10.70
2018-06-23T23:27:28.798Z,10.60
2018-06-23T23:29:56.447Z,10.60
2018-06-23T23:32:24.102Z,10.60
2018-06-23T23:34:51.853Z,10.60
2018-06-23T23:37:19.618Z,10.60
2018-06-23T23:39:47.336Z,10.60
2018-06-23T23:42:14.954Z,10.60
2018-06-23T23:44:42.606Z,10.60
2018-06-23T23:47:10.337Z,10.60
2018-06-23T23:49:38.002Z,10.60
2018-06-23T23:52:05.699Z,10.60
2018-06-23T23:54:33.366Z,10.60
2018-06-23T23:57:01.007Z,10.60
2018-06-23T23:59:28.632Z,10.70
